createdAt,value
2019-02-04T00:01:31.236Z,8.13
2019-02-04T00:03:59.735Z,6.62
2019-02-04T00:06:28.084Z,6.60
2019-02-04T00:08:56.988Z,6.80
2019-02-04T00:11:25.755Z,7.22
2019-02-04T00:13:54.483Z,6.80
2019-02-04T00:16:23.874Z,7.10
2019-02-04T00:18:53.007Z,7.78
2019-02-04T00:21:21.338Z,6.92
2019-02-04T00:23:48.914Z,8.40
2019-02-04T00:26:17.075Z,8.00
2019-02-04T00:28:45.684Z,7.95
2019-02-04T00:31:13.336Z,7.45
2019-02-04T00:33:41.692Z,6.77
2019-02-04T00:36:10.006Z,7.62
2019-02-04T00:38:38.360Z,6.75
2019-02-04T00:41:05.807Z,7.40
2019-02-04T00:43:34.018Z,7.53
2019-02-04T00:46:02.976Z,8.30
2019-02-04T00:48:33.592Z,6.97
2019-02-04T00:51:01.341Z,6.72
2019-02-04T00:53:31.426Z,7.05
2019-02-04T00:55:59.678Z,6.22
2019-02-04T00:58:27.650Z,6.72
2019-02-04T01:00:58.798Z,7.53
2019-02-04T01:03:27.158Z,7.55
2019-02-04T01:05:54.732Z,8.05
2019-02-04T01:08:23.110Z,7.75
2019-02-04T01:10:51.494Z,7.40
2019-02-04T01:13:19.798Z,6.80
2019-02-04T01:15:49.454Z,7.42
2019-02-04T01:18:17.435Z,7.00
2019-02-04T01:20:45.690Z,7.75
2019-02-04T01:23:14.752Z,7.35
2019-02-04T01:25:45.336Z,8.40
2019-02-04T01:28:15.498Z,7.78
2019-02-04T01:30:44.490Z,6.72
2019-02-04T01:33:13.052Z,8.15
2019-02-04T01:35:41.015Z,8.20
2019-02-04T01:38:09.963Z,8.23
2019-02-04T01:40:38.006Z,7.85
2019-02-04T01:43:06.974Z,6.17
2019-02-04T01:45:35.546Z,8.45
2019-02-04T01:48:04.146Z,7.72
2019-02-04T01:50:32.699Z,6.97
2019-02-04T01:53:01.432Z,8.20
2019-02-04T01:55:29.890Z,7.67
2019-02-04T01:57:58.615Z,8.10
2019-02-04T02:00:31.595Z,7.83
2019-02-04T02:02:59.327Z,7.67
2019-02-04T02:05:28.599Z,7.92
2019-02-04T02:07:56.903Z,7.42
2019-02-04T02:10:25.804Z,7.10
2019-02-04T02:12:54.701Z,6.95
2019-02-04T02:15:23.699Z,7.35
2019-02-04T02:17:52.497Z,8.23
2019-02-04T02:20:23.509Z,7.80
2019-02-04T02:22:51.067Z,7.87
2019-02-04T02:25:19.091Z,8.63
2019-02-04T02:27:47.234Z,7.33
2019-02-04T02:30:18.765Z,7.10
2019-02-04T02:32:48.946Z,7.50
2019-02-04T02:35:17.082Z,7.58
2019-02-04T02:37:45.743Z,7.35
2019-02-04T02:40:17.440Z,8.58
2019-02-04T02:42:45.987Z,7.72
2019-02-04T02:45:13.994Z,8.48
2019-02-04T02:47:42.376Z,8.05
2019-02-04T02:50:10.406Z,9.80
2019-02-04T02:52:38.496Z,8.70
2019-02-04T02:55:09.519Z,10.20
2019-02-04T02:57:36.865Z,8.68
2019-02-04T03:00:07.744Z,9.30
2019-02-04T03:02:37.224Z,7.87
2019-02-04T03:05:07.757Z,8.85
2019-02-04T03:07:36.249Z,7.83
2019-02-04T03:10:08.032Z,9.43
2019-02-04T03:12:40.293Z,7.72
2019-02-04T03:15:09.378Z,7.75
2019-02-04T03:17:37.376Z,8.93
2019-02-04T03:20:06.340Z,8.50
2019-02-04T03:22:34.428Z,8.73
2019-02-04T03:25:02.389Z,8.85
2019-02-04T03:27:30.665Z,7.10
2019-02-04T03:30:00.580Z,8.83
2019-02-04T03:32:29.610Z,8.05
2019-02-04T03:34:59.315Z,7.87
2019-02-04T03:37:29.085Z,7.50
2019-02-04T03:39:57.983Z,7.95
2019-02-04T03:42:28.159Z,8.13
2019-02-04T03:44:57.626Z,7.67
2019-02-04T03:47:26.417Z,8.40
2019-02-04T03:49:54.069Z,7.37
2019-02-04T03:52:22.290Z,7.50
2019-02-04T03:54:50.219Z,8.80
2019-02-04T03:57:18.616Z,9.00
2019-02-04T03:59:47.517Z,8.30
2019-02-04T04:02:16.431Z,9.15
2019-02-04T04:04:44.585Z,7.83
2019-02-04T04:07:13.038Z,8.68
2019-02-04T04:09:43.757Z,8.45
2019-02-04T04:12:13.627Z,7.97
2019-02-04T04:14:42.012Z,8.13
2019-02-04T04:17:10.946Z,7.35
2019-02-04T04:19:39.136Z,8.28
2019-02-04T04:22:07.304Z,7.37
2019-02-04T04:24:36.700Z,8.08
2019-02-04T04:27:05.077Z,8.05
2019-02-04T04:29:33.612Z,7.62
2019-02-04T04:32:01.937Z,7.92
2019-02-04T04:34:29.494Z,7.60
2019-02-04T04:36:58.121Z,6.90
2019-02-04T04:39:27.375Z,7.05
2019-02-04T04:41:56.528Z,6.90
2019-02-04T04:44:25.279Z,8.60
2019-02-04T04:46:53.052Z,8.43
2019-02-04T04:49:20.807Z,7.83
2019-02-04T04:51:48.875Z,8.38
2019-02-04T04:54:18.013Z,7.95
2019-02-04T04:56:47.875Z,7.37
2019-02-04T04:59:16.662Z,7.87
2019-02-04T05:01:45.203Z,8.25
2019-02-04T05:04:13.243Z,8.23
2019-02-04T05:06:41.216Z,7.70
2019-02-04T05:09:09.617Z,9.23
2019-02-04T05:11:37.260Z,7.60
2019-02-04T05:14:05.840Z,7.25
2019-02-04T05:16:34.061Z,7.67
2019-02-04T05:19:02.378Z,7.10
2019-02-04T05:21:30.775Z,7.65
2019-02-04T05:23:58.765Z,8.25
2019-02-04T05:26:26.807Z,8.75
2019-02-04T05:28:56.837Z,7.90
2019-02-04T05:31:24.795Z,8.93
2019-02-04T05:33:52.431Z,8.80
2019-02-04T05:36:20.834Z,8.40
2019-02-04T05:38:49.423Z,8.45
2019-02-04T05:41:17.655Z,7.37
2019-02-04T05:43:45.262Z,9.30
2019-02-04T05:46:13.534Z,9.20
2019-02-04T05:48:49.040Z,8.40
2019-02-04T05:51:11.414Z,7.30
2019-02-04T05:53:39.489Z,7.97
2019-02-04T05:56:08.668Z,8.60
2019-02-04T05:58:37.614Z,8.35
2019-02-04T06:01:06.091Z,7.55
2019-02-04T06:03:34.152Z,8.43
2019-02-04T06:06:02.524Z,8.05
2019-02-04T06:08:31.091Z,8.18
2019-02-04T06:10:59.070Z,8.08
2019-02-04T06:13:27.440Z,9.20
2019-02-04T06:15:56.027Z,8.03
2019-02-04T06:18:24.358Z,7.47
2019-02-04T06:20:52.059Z,9.05
2019-02-04T06:23:20.054Z,8.58
2019-02-04T06:25:50.799Z,7.65
2019-02-04T06:28:18.765Z,8.88
2019-02-04T06:30:48.059Z,8.88
2019-02-04T06:33:15.612Z,8.45
2019-02-04T06:35:44.075Z,7.53
2019-02-04T06:38:11.957Z,7.37
2019-02-04T06:40:40.032Z,8.55
2019-02-04T06:43:08.862Z,8.35
2019-02-04T06:45:37.978Z,11.12
2019-02-04T06:48:06.184Z,10.13
2019-02-04T06:50:34.259Z,11.22
2019-02-04T06:53:02.885Z,11.05
2019-02-04T06:55:32.175Z,8.88
2019-02-04T06:57:59.736Z,8.70
2019-02-04T07:00:28.627Z,9.03
2019-02-04T07:02:58.245Z,7.97
2019-02-04T07:05:25.983Z,8.18
2019-02-04T07:07:54.468Z,9.93
2019-02-04T07:10:22.950Z,9.63
2019-02-04T07:12:51.349Z,9.38
2019-02-04T07:15:22.607Z,7.03
2019-02-04T07:17:51.686Z,8.40
2019-02-04T07:20:21.723Z,7.25
2019-02-04T07:22:49.796Z,8.35
2019-02-04T07:25:18.861Z,8.15
2019-02-04T07:27:49.184Z,9.40
2019-02-04T07:30:20.892Z,9.63
2019-02-04T07:32:51.059Z,9.20
2019-02-04T07:35:19.221Z,8.00
2019-02-04T07:37:47.413Z,9.30
2019-02-04T07:40:19.015Z,8.83
2019-02-04T07:42:47.557Z,7.62
2019-02-04T07:45:15.924Z,8.50
2019-02-04T07:47:43.672Z,7.37
2019-02-04T07:50:11.662Z,7.45
2019-02-04T07:52:39.971Z,8.13
2019-02-04T07:55:10.104Z,8.33
2019-02-04T07:57:37.814Z,7.83
2019-02-04T08:00:12.389Z,9.08
2019-02-04T08:02:40.831Z,8.63
2019-02-04T08:05:09.559Z,9.18
2019-02-04T08:07:37.580Z,9.03
2019-02-04T08:10:06.053Z,7.10
2019-02-04T08:12:34.239Z,8.30
2019-02-04T08:15:01.470Z,10.35
2019-02-04T08:17:30.287Z,8.00
2019-02-04T08:19:59.519Z,8.60
2019-02-04T08:22:26.942Z,8.90
2019-02-04T08:24:55.202Z,7.33
2019-02-04T08:27:23.287Z,7.90
2019-02-04T08:29:56.718Z,7.95
2019-02-04T08:32:26.262Z,8.00
2019-02-04T08:34:53.900Z,9.70
2019-02-04T08:37:24.033Z,9.05
2019-02-04T08:39:52.447Z,8.15
2019-02-04T08:42:21.956Z,10.53
2019-02-04T08:44:50.637Z,9.33
2019-02-04T08:47:22.667Z,9.03
2019-02-04T08:49:57.986Z,9.65
2019-02-04T08:52:22.328Z,11.33
2019-02-04T08:54:50.835Z,8.30
2019-02-04T08:57:21.386Z,9.27
2019-02-04T08:59:49.640Z,11.50
2019-02-04T09:02:18.017Z,17.70
2019-02-04T09:04:46.431Z,15.80
2019-02-04T09:07:13.956Z,12.23
2019-02-04T09:09:42.126Z,15.93
2019-02-04T09:12:11.121Z,12.30
2019-02-04T09:14:38.724Z,10.27
2019-02-04T09:17:07.169Z,10.57
2019-02-04T09:19:35.641Z,10.53
2019-02-04T09:22:04.023Z,10.30
2019-02-04T09:24:32.098Z,10.10
2019-02-04T09:27:00.034Z,11.80
2019-02-04T09:29:28.534Z,10.80
2019-02-04T09:31:57.075Z,12.73
2019-02-04T09:34:25.059Z,10.93
2019-02-04T09:36:52.786Z,12.10
2019-02-04T09:39:21.569Z,11.87
2019-02-04T09:41:48.997Z,10.83
2019-02-04T09:44:18.000Z,10.00
2019-02-04T09:46:45.982Z,10.87
2019-02-04T09:49:14.339Z,9.77
2019-02-04T09:51:42.115Z,9.40
2019-02-04T09:54:10.191Z,10.20
2019-02-04T09:56:38.955Z,10.50
2019-02-04T09:59:07.351Z,9.87
2019-02-04T10:01:35.343Z,9.00
2019-02-04T10:04:03.649Z,9.87
2019-02-04T10:06:31.356Z,9.53
2019-02-04T10:08:58.932Z,9.83
2019-02-04T10:11:27.112Z,9.80
2019-02-04T10:13:55.470Z,8.80
2019-02-04T10:16:23.893Z,8.50
2019-02-04T10:18:51.622Z,9.20
2019-02-04T10:21:19.772Z,9.10
2019-02-04T10:23:48.143Z,9.23
2019-02-04T10:26:16.283Z,7.87
2019-02-04T10:28:45.019Z,8.70
2019-02-04T10:31:14.144Z,9.23
2019-02-04T10:33:42.148Z,11.20
2019-02-04T10:36:10.350Z,11.17
2019-02-04T10:38:38.425Z,11.13
2019-02-04T10:41:07.811Z,8.80
2019-02-04T10:43:35.891Z,9.00
2019-02-04T10:46:04.857Z,8.57
2019-02-04T10:48:34.835Z,9.30
2019-02-04T10:51:03.260Z,10.50
2019-02-04T10:53:32.754Z,9.93
2019-02-04T10:56:00.796Z,9.77
2019-02-04T10:58:29.235Z,9.03
2019-02-04T11:00:57.604Z,9.50
2019-02-04T11:03:25.937Z,9.50
2019-02-04T11:05:54.299Z,10.33
2019-02-04T11:08:22.420Z,9.43
2019-02-04T11:10:50.080Z,9.60
2019-02-04T11:13:18.343Z,9.30
2019-02-04T11:15:47.876Z,9.63
2019-02-04T11:18:16.863Z,9.70
2019-02-04T11:20:57.882Z,9.83
2019-02-04T11:23:16.766Z,10.43
2019-02-04T11:25:44.893Z,10.40
2019-02-04T11:28:14.159Z,12.00
2019-02-04T11:31:02.394Z,10.93
2019-02-04T11:33:33.528Z,9.90
2019-02-04T11:36:01.249Z,10.50
2019-02-04T11:38:29.738Z,12.23
2019-02-04T11:40:58.591Z,11.57
2019-02-04T11:43:26.651Z,10.50
2019-02-04T11:45:55.563Z,11.50
2019-02-04T11:48:23.871Z,11.60
2019-02-04T11:50:51.458Z,11.60
2019-02-04T11:53:31.959Z,12.27
2019-02-04T11:55:50.279Z,12.07
2019-02-04T11:58:19.390Z,12.30
2019-02-04T12:00:51.724Z,12.83
2019-02-04T12:03:21.653Z,12.80
2019-02-04T12:05:50.032Z,12.23
2019-02-04T12:08:19.134Z,11.87
2019-02-04T12:11:02.776Z,11.63
2019-02-04T12:13:30.677Z,12.20
2019-02-04T12:15:59.649Z,12.50
2019-02-04T12:18:28.017Z,12.30
2019-02-04T12:20:55.585Z,12.23
2019-02-04T12:23:27.767Z,12.97
2019-02-04T12:25:57.113Z,12.60
2019-02-04T12:28:25.840Z,11.83
2019-02-04T12:30:55.579Z,11.03
2019-02-04T12:33:23.998Z,11.40
2019-02-04T12:35:52.473Z,10.70
2019-02-04T12:38:20.912Z,10.80
2019-02-04T12:40:57.371Z,11.23
2019-02-04T12:43:27.271Z,9.53
2019-02-04T12:45:56.359Z,10.70
2019-02-04T12:48:27.075Z,9.90
2019-02-04T12:50:56.654Z,10.03
2019-02-04T12:53:26.161Z,8.70
2019-02-04T12:55:54.844Z,9.10
2019-02-04T12:58:22.674Z,8.37
2019-02-04T13:00:52.505Z,8.47
2019-02-04T13:03:52.177Z,7.83
2019-02-04T13:06:29.383Z,10.00
2019-02-04T13:08:57.094Z,10.30
2019-02-04T13:11:27.018Z,9.53
2019-02-04T13:13:57.847Z,8.50
2019-02-04T13:16:26.776Z,8.57
2019-02-04T13:18:58.578Z,7.60
2019-02-04T13:21:30.132Z,8.50
2019-02-04T13:23:58.564Z,8.43
2019-02-04T13:26:28.432Z,7.50
2019-02-04T13:28:56.870Z,8.40
2019-02-04T13:31:24.766Z,7.20
2019-02-04T13:33:56.548Z,8.00
2019-02-04T13:36:25.749Z,7.00
2019-02-04T13:38:54.178Z,7.70
2019-02-04T13:41:22.205Z,7.07
2019-02-04T13:43:51.178Z,6.57
2019-02-04T13:46:18.883Z,7.20
2019-02-04T13:48:47.314Z,6.40
2019-02-04T13:51:16.948Z,7.87
2019-02-04T13:53:48.773Z,7.60
2019-02-04T13:56:17.244Z,8.30
2019-02-04T13:58:45.306Z,7.40
2019-02-04T14:01:12.829Z,7.40
2019-02-04T14:03:41.678Z,7.57
2019-02-04T14:06:09.742Z,7.50
2019-02-04T14:08:38.164Z,6.87
2019-02-04T14:11:06.302Z,7.30
2019-02-04T14:13:34.604Z,6.00
2019-02-04T14:16:02.843Z,6.50
2019-02-04T14:18:31.216Z,5.60
2019-02-04T14:21:00.164Z,5.37
2019-02-04T14:23:28.981Z,6.07
2019-02-04T14:25:58.215Z,4.80
2019-02-04T14:28:26.234Z,5.70
2019-02-04T14:30:55.852Z,5.20
2019-02-04T14:33:24.355Z,5.70
2019-02-04T14:35:52.778Z,7.80
2019-02-04T14:38:21.045Z,5.50
2019-02-04T14:40:50.031Z,5.90
2019-02-04T14:43:26.298Z,5.97
2019-02-04T14:46:33.179Z,6.47
2019-02-04T14:49:31.769Z,5.87
2019-02-04T14:52:28.399Z,5.10
2019-02-04T14:55:33.234Z,6.13
2019-02-04T14:58:35.310Z,5.43
2019-02-04T15:01:39.231Z,5.70
2019-02-04T15:04:58.208Z,5.27
2019-02-04T15:08:12.844Z,5.90
2019-02-04T15:10:55.682Z,6.90
2019-02-04T15:14:30.466Z,6.53
2019-02-04T15:17:40.772Z,5.87
2019-02-04T15:20:46.784Z,4.97
2019-02-04T15:23:41.322Z,5.40
2019-02-04T15:26:32.391Z,5.83
2019-02-04T15:29:17.104Z,5.70
2019-02-04T15:32:06.226Z,5.60
2019-02-04T15:35:21.669Z,6.17
2019-02-04T15:38:00.485Z,5.50
2019-02-04T15:40:40.519Z,6.07
2019-02-04T15:43:34.944Z,5.50
2019-02-04T15:46:43.350Z,5.47
2019-02-04T15:49:51.109Z,6.33
2019-02-04T15:52:19.824Z,5.07
2019-02-04T15:54:48.391Z,6.10
2019-02-04T15:57:16.911Z,5.63
2019-02-04T15:59:45.660Z,6.07
2019-02-04T16:02:13.639Z,5.50
2019-02-04T16:04:41.745Z,5.40
2019-02-04T16:07:11.349Z,5.57
2019-02-04T16:09:39.817Z,5.73
2019-02-04T16:12:08.510Z,6.23
2019-02-04T16:14:37.933Z,6.33
2019-02-04T16:17:08.927Z,5.90
2019-02-04T16:19:39.996Z,5.90
2019-02-04T16:22:07.965Z,6.30
2019-02-04T16:24:36.424Z,5.73
2019-02-04T16:27:05.225Z,6.47
2019-02-04T16:29:33.720Z,6.83
2019-02-04T16:32:03.298Z,6.93
2019-02-04T16:34:30.976Z,6.40
2019-02-04T16:36:59.476Z,6.30
2019-02-04T16:39:27.928Z,7.57
2019-02-04T16:41:57.562Z,6.60
2019-02-04T16:44:25.230Z,6.60
2019-02-04T16:46:54.665Z,6.47
2019-02-04T16:49:25.128Z,6.63
2019-02-04T16:51:53.618Z,7.50
2019-02-04T16:54:21.295Z,6.17
2019-02-04T16:56:50.034Z,6.90
2019-02-04T16:59:19.551Z,6.83
2019-02-04T17:01:47.588Z,6.53
2019-02-04T17:04:15.350Z,6.07
2019-02-04T17:06:45.148Z,7.07
2019-02-04T17:09:14.775Z,6.70
2019-02-04T17:11:44.463Z,7.00
2019-02-04T17:14:14.050Z,9.90
2019-02-04T17:16:42.513Z,7.40
2019-02-04T17:19:10.613Z,8.07
2019-02-04T17:21:42.666Z,6.53
2019-02-04T17:24:10.852Z,8.07
2019-02-04T17:26:39.359Z,7.70
2019-02-04T17:29:09.476Z,6.87
2019-02-04T17:31:37.634Z,7.63
2019-02-04T17:34:06.828Z,7.00
2019-02-04T17:36:36.239Z,10.23
2019-02-04T17:39:07.792Z,7.90
2019-02-04T17:41:37.109Z,8.00
2019-02-04T17:44:07.149Z,7.83
2019-02-04T17:46:35.484Z,9.20
2019-02-04T17:49:03.963Z,8.93
2019-02-04T17:51:33.958Z,9.03
2019-02-04T17:54:05.223Z,9.40
2019-02-04T17:56:33.923Z,9.90
2019-02-04T17:59:02.457Z,10.30
2019-02-04T18:01:31.161Z,11.00
2019-02-04T18:04:06.344Z,10.63
2019-02-04T18:06:34.388Z,10.10
2019-02-04T18:09:04.914Z,10.10
2019-02-04T18:11:32.833Z,9.23
2019-02-04T18:14:01.041Z,9.83
2019-02-04T18:16:28.745Z,8.43
2019-02-04T18:18:57.488Z,9.33
2019-02-04T18:21:25.508Z,8.33
2019-02-04T18:23:55.511Z,8.00
2019-02-04T18:26:27.616Z,8.17
2019-02-04T18:28:55.923Z,9.20
2019-02-04T18:31:24.944Z,8.60
2019-02-04T18:33:55.174Z,10.40
2019-02-04T18:36:23.648Z,12.93
2019-02-04T18:38:53.102Z,9.97
2019-02-04T18:41:21.669Z,11.40
2019-02-04T18:43:50.207Z,11.57
2019-02-04T18:46:18.009Z,11.00
2019-02-04T18:48:49.265Z,9.20
2019-02-04T18:51:17.729Z,8.40
2019-02-04T18:53:57.334Z,9.30
2019-02-04T18:56:19.430Z,8.50
2019-02-04T18:58:51.537Z,9.80
2019-02-04T19:01:25.322Z,8.00
2019-02-04T19:03:53.654Z,10.30
2019-02-04T19:06:21.730Z,11.03
2019-02-04T19:08:50.016Z,9.07
2019-02-04T19:11:22.562Z,9.60
2019-02-04T19:13:50.541Z,10.00
2019-02-04T19:16:19.022Z,9.13
2019-02-04T19:18:47.911Z,10.53
2019-02-04T19:21:17.172Z,13.90
2019-02-04T19:24:09.044Z,13.30
2019-02-04T19:26:29.144Z,8.63
2019-02-04T19:29:05.427Z,17.97
2019-02-04T19:31:34.340Z,16.20
2019-02-04T19:34:07.203Z,10.93
2019-02-04T19:36:35.659Z,11.50
2019-02-04T19:39:05.883Z,9.53
2019-02-04T19:41:37.476Z,10.83
2019-02-04T19:44:05.813Z,7.57
2019-02-04T19:46:34.176Z,7.00
2019-02-04T19:49:05.560Z,6.60
2019-02-04T19:51:34.227Z,8.23
2019-02-04T19:54:04.063Z,8.33
2019-02-04T19:56:34.005Z,6.70
2019-02-04T19:59:02.536Z,8.03
2019-02-04T20:01:35.545Z,7.47
2019-02-04T20:04:04.123Z,6.97
2019-02-04T20:06:33.556Z,10.20
2019-02-04T20:09:05.993Z,8.53
2019-02-04T20:11:34.487Z,7.60
2019-02-04T20:14:03.137Z,8.53
2019-02-04T20:16:33.328Z,8.93
2019-02-04T20:19:01.140Z,8.50
2019-02-04T20:21:29.132Z,8.30
2019-02-04T20:23:57.197Z,7.60
2019-02-04T20:26:28.360Z,7.97
2019-02-04T20:28:57.513Z,7.77
2019-02-04T20:31:25.432Z,8.40
2019-02-04T20:33:53.487Z,7.50
2019-02-04T20:36:22.062Z,7.37
2019-02-04T20:38:49.758Z,7.60
2019-02-04T20:41:20.831Z,6.50
2019-02-04T20:43:49.404Z,6.70
2019-02-04T20:46:17.147Z,7.13
2019-02-04T20:48:46.060Z,8.00
2019-02-04T20:51:16.883Z,8.23
2019-02-04T20:53:45.028Z,7.33
2019-02-04T20:56:16.234Z,8.10
2019-02-04T20:58:45.331Z,9.13
2019-02-04T21:01:15.126Z,8.07
2019-02-04T21:03:43.161Z,7.97
2019-02-04T21:06:12.927Z,10.00
2019-02-04T21:08:42.625Z,7.70
2019-02-04T21:11:12.624Z,9.33
2019-02-04T21:13:40.891Z,9.77
2019-02-04T21:16:09.066Z,9.50
2019-02-04T21:18:38.357Z,7.63
2019-02-04T21:21:07.231Z,8.27
2019-02-04T21:23:36.116Z,8.27
2019-02-04T21:26:06.832Z,8.47
2019-02-04T21:28:35.180Z,8.00
2019-02-04T21:31:03.963Z,8.47
2019-02-04T21:33:33.113Z,8.13
2019-02-04T21:36:01.625Z,8.47
2019-02-04T21:38:30.123Z,8.20
2019-02-04T21:41:01.425Z,7.90
2019-02-04T21:43:29.785Z,8.33
2019-02-04T21:46:00.503Z,9.10
2019-02-04T21:48:29.634Z,8.20
2019-02-04T21:51:01.060Z,7.00
2019-02-04T21:53:31.216Z,8.60
2019-02-04T21:56:00.346Z,8.40
2019-02-04T21:58:30.693Z,7.27
2019-02-04T22:00:58.940Z,7.23
2019-02-04T22:03:28.027Z,7.30
2019-02-04T22:05:57.164Z,7.20
2019-02-04T22:08:25.377Z,7.70
2019-02-04T22:10:54.161Z,7.47
2019-02-04T22:13:22.981Z,7.50
2019-02-04T22:15:52.002Z,7.00
2019-02-04T22:18:27.532Z,8.57
2019-02-04T22:20:55.973Z,8.60
2019-02-04T22:23:24.405Z,7.50
2019-02-04T22:25:53.813Z,8.90
2019-02-04T22:28:24.293Z,7.20
2019-02-04T22:30:54.512Z,8.43
2019-02-04T22:33:23.591Z,9.70
2019-02-04T22:35:51.379Z,9.90
2019-02-04T22:38:19.939Z,7.60
2019-02-04T22:40:48.367Z,8.20
2019-02-04T22:43:18.079Z,8.50
2019-02-04T22:45:46.829Z,8.20
2019-02-04T22:48:15.246Z,7.70
2019-02-04T22:50:43.700Z,8.27
2019-02-04T22:53:13.938Z,7.57
2019-02-04T22:55:42.443Z,8.07
2019-02-04T22:58:10.787Z,8.43
2019-02-04T23:01:07.550Z,8.53
2019-02-04T23:03:35.654Z,9.60
2019-02-04T23:06:43.639Z,10.27
2019-02-04T23:09:12.951Z,10.20
2019-02-04T23:11:41.168Z,9.10
2019-02-04T23:14:09.595Z,10.33
2019-02-04T23:16:38.384Z,9.40
2019-02-04T23:19:08.170Z,11.43
2019-02-04T23:21:36.540Z,10.00
2019-02-04T23:24:06.070Z,10.30
2019-02-04T23:26:34.899Z,9.93
2019-02-04T23:29:04.829Z,10.87
2019-02-04T23:31:35.075Z,10.00
2019-02-04T23:34:04.115Z,10.00
2019-02-04T23:36:32.319Z,11.70
2019-02-04T23:39:01.212Z,8.80
2019-02-04T23:41:34.097Z,7.40
2019-02-04T23:44:02.280Z,9.20
2019-02-04T23:46:30.259Z,8.07
2019-02-04T23:49:00.728Z,7.47
2019-02-04T23:51:30.109Z,7.80
2019-02-04T23:53:59.808Z,7.47
2019-02-04T23:56:29.466Z,8.80
2019-02-04T23:58:58.492Z,8.97
